Home > Products > Valid Products > TAF

000
FTUS44 KLZK 241800 CCA
TAFHRO
TAF COR
KHRO 241800Z 2418/2518 20008G16KT P6SM VCTS BKN040CB
      TEMPO 2418/2420 4SM -TSRA BR OVC025CB
     FM242000 19012KT P6SM VCTS SCT025 BKN050CB
     FM250000 16008KT P6SM SCT100 BKN250
     FM251400 17010KT P6SM VCSH BKN040=



000
FTUS44 KLZK 241737
TAFLIT
TAF
KLIT 241737Z 2418/2518 19008G16KT P6SM SCT030
     FM242100 18012KT P6SM VCTS BKN040CB
     FM250100 16008KT P6SM SCT100 BKN250
     FM251000 18008KT 6SM BR OVC015
     FM251500 19009KT P6SM BKN035=



000
FTUS44 KLZK 241737
TAFHOT
TAF
KHOT 241737Z 2418/2518 19008G16KT P6SM SCT030
     FM242000 18012KT P6SM VCTS BKN040CB
      TEMPO 2420/2424 4SM -TSRA BR OVC025CB
     FM250000 16008KT P6SM SCT100 BKN250
     FM251100 18006KT 6SM BR OVC015
     FM251500 19008KT P6SM BKN035=



000
FTUS44 KLZK 241737
TAFHRO
TAF
KHRO 241737Z 2418/2518 20008G16KT P6SM BKN040
     FM242000 17012KT P6SM VCTS SCT025 BKN050CB
      TEMPO 2420/2424 4SM -TSRA BR OVC025CB
     FM250000 16008KT P6SM SCT100 BKN250
     FM251400 17010KT P6SM VCSH BKN040=



000
FTUS44 KLZK 241737
TAFPBF
TAF
KPBF 241737Z 2418/2518 18008G16KT P6SM SCT030
     FM242100 18012KT P6SM VCTS BKN040CB
     FM250100 16008KT P6SM SCT100 BKN250
     FM251000 18008KT 6SM BR OVC015
     FM251500 19010KT P6SM BKN035=



000
FTUS44 KLZK 241140
TAFHOT
TAF
KHOT 241140Z 2412/2512 17005KT P6SM SCT025 OVC040
      TEMPO 2412/2415 OVC025
     FM241500 18008KT P6SM VCTS SCT030 OVC050CB
      TEMPO 2415/2419 5SM TSRA BR OVC030CB
     FM250000 18005KT P6SM OVC100=



000
FTUS44 KLZK 241140
TAFHRO
TAF
KHRO 241140Z 2412/2512 15006KT P6SM SCT040 OVC120
     FM241500 16009KT P6SM VCSH SCT040 OVC060
      TEMPO 2418/2422 5SM TSRA BR OVC030CB
     FM242200 16008KT P6SM VCSH SCT040 OVC060=



000
FTUS44 KLZK 241140
TAFLIT
TAF
KLIT 241140Z 2412/2512 17003KT P6SM VCSH BKN050 OVC100
     FM241500 19009KT P6SM VCTS SCT030 OVC050CB
     FM241800 18009KT P6SM OVC120
     FM250000 17005KT P6SM OVC060=



000
FTUS44 KLZK 241140
TAFPBF
TAF
KPBF 241140Z 2412/2512 12005KT P6SM SCT040 OVC250
     FM241500 19010G18KT P6SM BKN250
     FM241800 18009KT P6SM OVC120
     FM250000 17005KT P6SM OVC060=



000
FTUS44 KLZK 240523
TAFLIT
TAF
KLIT 240523Z 2406/2506 17004KT P6SM SCT080 BKN250
     FM241200 17005KT P6SM FEW030 SCT080 BKN150
     FM241700 16008KT P6SM VCTS SCT030 BKN050CB OVC100=



000
FTUS44 KLZK 240523
TAFHRO
TAF
KHRO 240523Z 2406/2506 15004KT P6SM SCT090 BKN150
     FM241200 15007KT P6SM VCSH FEW010 SCT030 OVC050
     FM241600 16009KT P6SM VCTS SCT030 OVC050CB=



000
FTUS44 KLZK 240523
TAFHOT
TAF
KHOT 240523Z 2406/2506 13003KT P6SM SCT080 BKN250
     FM241200 17005KT P6SM SCT030 BKN050 OVC150
     FM241700 16008KT P6SM VCTS SCT030 OVC050CB=



000
FTUS44 KLZK 240523
TAFPBF
TAF
KPBF 240523Z 2406/2506 17003KT P6SM SCT080 BKN250
     FM241200 17005KT P6SM FEW030 SCT080 BKN150
     FM241700 16008KT P6SM VCTS SCT030 BKN050CB OVC100=



000
FTUS44 KLZK 232335
TAFPBF
TAF
KPBF 232335Z 2400/2424 17007KT P6SM VCSH FEW030 BKN080 OVC250
     FM241200 17005KT P6SM SCT030 BKN050 OVC100
     FM241700 16008KT P6SM VCTS SCT030 BKN050CB OVC100=



000
FTUS44 KLZK 232335
TAFHOT
TAF
KHOT 232335Z 2400/2424 17006KT P6SM VCSH SCT030 BKN080 OVC150
     FM241200 17005KT P6SM SCT030 BKN050 OVC100
     FM241700 16008KT P6SM VCTS SCT030 OVC050CB=



000
FTUS44 KLZK 232335
TAFHRO
TAF
KHRO 232335Z 2400/2424 16008KT P6SM VCSH SCT030 OVC080
     FM240600 15005KT P6SM FEW040 BKN080 OVC150
     FM241200 14007KT P6SM VCSH FEW010 SCT030 OVC050
     FM241600 16009KT P6SM VCTS SCT030 OVC050CB=



000
FTUS44 KLZK 232335
TAFLIT
TAF
KLIT 232335Z 2400/2424 16005KT P6SM VCSH FEW030 BKN080 OVC250
     FM241200 17005KT P6SM SCT030 BKN050 OVC100
     FM241700 16008KT P6SM VCTS SCT030 BKN050CB OVC100=



000
FTUS44 KLZK 232020 AAB
TAFHRO
TAF AMD
KHRO 232020Z 2320/2418 16010G18KT P6SM VCSH SCT030 BKN080 OVC250
     FM240100 15009KT P6SM FEW040 BKN080 OVC250
     FM241200 14008KT P6SM OVC050
     FM241500 16008KT P6SM VCTS OVC025CB=



000
FTUS44 KLZK 231730
TAFHOT
TAF
KHOT 231730Z 2318/2418 21008KT P6SM VCSH BKN100
     FM240000 14007KT P6SM BKN080
     FM241200 18004KT P6SM OVC050=



000
FTUS44 KLZK 231730
TAFHRO
TAF
KHRO 231730Z 2318/2418 16014G20KT P6SM BKN250
     FM232030 16010G18KT P6SM VCSH SCT030 BKN080
     FM240000 15009KT P6SM OVC080
     FM241200 14008KT P6SM OVC050
     FM241500 16008KT P6SM VCTS OVC025CB=



000
FTUS44 KLZK 231730
TAFLIT
TAF
KLIT 231730Z 2318/2418 18012G17KT P6SM FEW100 BKN250
     FM240000 14006KT P6SM BKN080
     FM241300 20006KT P6SM OVC100=



000
FTUS44 KLZK 231730
TAFPBF
TAF
KPBF 231730Z 2318/2418 18012G17KT P6SM FEW100 BKN250
     FM240000 14006KT P6SM BKN080
     FM241300 20006KT P6SM OVC100=



000
FTUS44 KLZK 231659 AAA
TAFLIT
TAF AMD
KLIT 231659Z 2317/2412 18012G17KT P6SM FEW100 BKN250
     FM240000 14006KT P6SM VCSH SCT030 BKN080 OVC150
     FM240600 17004KT P6SM OVC080=



000
FTUS44 KLZK 231659 AAA
TAFHRO
TAF AMD
KHRO 231659Z 2317/2412 16014G20KT P6SM SKC
     FM232030 16010G18KT P6SM VCSH SCT030 BKN080 OVC150
     FM240000 15009KT P6SM OVC080=



000
FTUS44 KLZK 231139
TAFLIT
TAF
KLIT 231139Z 2312/2412 15005KT P6SM OVC250
     FM231800 15009G15KT P6SM VCSH SCT100 BKN250
     FM240000 14006KT P6SM VCSH SCT030 BKN080 OVC150
     FM240600 17004KT P6SM OVC080=



000
FTUS44 KLZK 231139
TAFPBF
TAF
KPBF 231139Z 2312/2412 15005KT P6SM OVC250
     FM231800 15009G15KT P6SM VCSH SCT100 BKN250
     FM240000 14006KT P6SM VCSH SCT030 BKN080 OVC150
     FM240600 17004KT P6SM OVC080=



000
FTUS44 KLZK 231139
TAFHRO
TAF
KHRO 231139Z 2312/2412 15005KT P6SM OVC250
     FM231800 16010G18KT P6SM VCSH SCT100 BKN150
     FM232200 16010G18KT P6SM VCSH SCT030 BKN080 OVC150
     FM240000 15009KT P6SM OVC080=



000
FTUS44 KLZK 231139
TAFHOT
TAF
KHOT 231139Z 2312/2412 00000KT P6SM OVC250
     FM231700 17009KT P6SM VCSH SCT100 BKN250
     FM240000 14007KT P6SM VCSH BKN080 OVC150
     FM240600 15003KT P6SM OVC080=



000
FTUS44 KLZK 230526
TAFHOT
TAF
KHOT 230526Z 2306/2406 00000KT P6SM OVC250
     FM231500 12005KT P6SM BKN250
     FM231800 15009KT P6SM FEW040 SCT100 BKN250
     FM240000 16008G15KT P6SM VCSH SCT030 BKN080 OVC150=



000
FTUS44 KLZK 230526
TAFPBF
TAF
KPBF 230526Z 2306/2406 00000KT P6SM OVC250
     FM231500 14007KT P6SM SCT250
     FM231800 15009KT P6SM FEW040 SCT100 BKN250
     FM240000 16008KT P6SM VCSH SCT030 BKN080 OVC150=



000
FTUS44 KLZK 230526
TAFHRO
TAF
KHRO 230526Z 2306/2406 15005KT P6SM OVC250
     FM231500 15010KT P6SM BKN250
     FM231800 16008G18KT P6SM VCSH FEW040 SCT100 BKN250
     FM232200 16008G18KT P6SM VCSH SCT030 BKN080 OVC150=



000
FTUS44 KLZK 230526
TAFLIT
TAF
KLIT 230526Z 2306/2406 00000KT P6SM OVC250
     FM231500 14007KT P6SM BKN250
     FM231800 15009G15KT P6SM FEW040 SCT100 BKN250
     FM240000 16008KT P6SM VCSH SCT030 BKN080 OVC150=



000
FTUS44 KLZK 222332
TAFHOT
TAF
KHOT 222332Z 2300/2324 15005KT P6SM SCT250
     FM231500 12005KT P6SM BKN250
     FM231800 15009KT P6SM FEW040 SCT100 BKN250=



000
FTUS44 KLZK 222332
TAFLIT
TAF
KLIT 222332Z 2300/2324 11003KT P6SM SCT250
     FM231500 14007KT P6SM BKN250
     FM231800 15009KT P6SM FEW040 SCT100 BKN250=



000
FTUS44 KLZK 222332
TAFPBF
TAF
KPBF 222332Z 2300/2324 12003KT P6SM SCT250
     FM231500 14007KT P6SM SCT250
     FM231800 15009KT P6SM FEW040 SCT100 BKN250=



000
FTUS44 KLZK 222332
TAFHRO
TAF
KHRO 222332Z 2300/2324 14004KT P6SM SCT250
     FM231500 15010KT P6SM BKN250
     FM231800 16008G18KT P6SM VCSH FEW040 SCT100 BKN250=



000
FTUS44 KLZK 221131
TAFPBF
TAF
KPBF 221131Z 2212/2312 05003KT P6SM BKN250
     FM221500 08007KT P6SM SCT250
     FM230000 07003KT P6SM SKC=



000
FTUS44 KLZK 221131
TAFHRO
TAF
KHRO 221131Z 2212/2312 09003KT P6SM BKN250
     FM221500 13009KT P6SM SCT250
     FM230000 14004KT P6SM SKC=



000
FTUS44 KLZK 221131
TAFLIT
TAF
KLIT 221131Z 2212/2312 05003KT P6SM SCT110
     FM221500 09008KT P6SM SCT250
     FM230000 10003KT P6SM SKC=



000
FTUS44 KLZK 221131
TAFHOT
TAF
KHOT 221131Z 2212/2312 10003KT P6SM SCT100 OVC250
     FM221500 11009KT P6SM BKN250
     FM230000 10003KT P6SM SKC=



000
FTUS44 KLZK 221019 AAA
TAFHRO
TAF AMD
KHRO 221019Z 2210/2306 08003KT P6SM BKN110 OVC250
     FM221500 15007KT P6SM SCT080 BKN250=



000
FTUS44 KLZK 221008 AAA
TAFHOT
TAF AMD
KHOT 221008Z 2210/2306 09003KT P6SM SCT100 OVC250
     FM221500 08005KT P6SM FEW030 SCT100 SCT250=



000
FTUS44 KLZK 220525
TAFHRO
TAF
KHRO 220525Z 2206/2306 06003KT P6SM SCT060 BKN110
      TEMPO 2209/2213 3SM BR FEW005
     FM221500 15007KT P6SM FEW035 SCT080 SCT250=



000
FTUS44 KLZK 220525
TAFHOT
TAF
KHOT 220525Z 2206/2306 09003KT P6SM FEW100 SCT250
     FM220900 09003KT 5SM BR FEW010 SCT250
      TEMPO 2209/2213 1SM BR SCT005
     FM221500 08005KT P6SM FEW030 SCT100 SCT250=



000
FTUS44 KLZK 220525
TAFPBF
TAF
KPBF 220525Z 2206/2306 05003KT P6SM SCT250
     FM220900 05003KT 5SM BR FEW010 SCT250
      TEMPO 2209/2213 1SM BR SCT005
     FM221500 09005KT P6SM FEW030 SCT100 SCT250=



000
FTUS44 KLZK 220525
TAFLIT
TAF
KLIT 220525Z 2206/2306 05003KT P6SM SCT250
     FM220900 05003KT 5SM BR FEW010 SCT250
      TEMPO 2209/2213 1SM BR SCT005
     FM221500 09005KT P6SM FEW030 SCT100 SCT250=



000
FTUS44 KLZK 212331
TAFPBF
TAF
KPBF 212331Z 2200/2224 VRB06KT P6SM SCT050
     FM220300 VRB04KT P6SM SCT250
     FM220900 VRB03KT 5SM BR FEW010 SCT250
      TEMPO 2209/2213 1SM BR SCT005
     FM221500 09005KT P6SM FEW030 SCT100 SCT250=



000
FTUS44 KLZK 212331
TAFLIT
TAF
KLIT 212331Z 2200/2224 03007KT P6SM SCT050
     FM220300 VRB04KT P6SM SCT250
     FM220900 VRB03KT 5SM BR FEW010 SCT250
      TEMPO 2209/2213 1SM BR SCT005
     FM221500 09005KT P6SM FEW030 SCT100 SCT250=



000
FTUS44 KLZK 212331
TAFHOT
TAF
KHOT 212331Z 2200/2224 09004KT P6SM SCT050
     FM220400 VRB03KT P6SM SCT250
     FM220900 VRB03KT 5SM BR FEW010 SCT250
      TEMPO 2209/2213 1SM BR SCT005
     FM221500 08005KT P6SM FEW030 SCT100 SCT250=



000
FTUS44 KLZK 212331
TAFHRO
TAF
KHRO 212331Z 2200/2224 03005KT P6SM SCT250
     FM220600 VRB03KT P6SM SCT250
      TEMPO 2209/2213 3SM BR FEW005
     FM221500 15007KT P6SM FEW035 SCT080 SCT250=



    US Dept of Commerce
    National Oceanic and Atmospheric Administration
    National Weather Service
    1325 East West Highway
    Silver Spring, MD 20910
    Page Author: NWS Internet Services Team
Disclaimer
Information Quality
Credits
Glossary
Privacy Policy
Freedom of Information Act (FOIA)
About Us
Career Opportunities